createdAt,value
2019-05-03T00:02:32.424Z,72.10
2019-05-03T00:05:25.746Z,72.50
2019-05-03T00:08:07.427Z,72.40
2019-05-03T00:10:38.648Z,73.10
2019-05-03T00:13:12.304Z,73.10
2019-05-03T00:15:52.209Z,73.00
2019-05-03T00:18:26.132Z,72.90
2019-05-03T00:20:59.639Z,72.70
2019-05-03T00:23:32.407Z,72.60
2019-05-03T00:26:04.376Z,72.70
2019-05-03T00:28:36.656Z,72.00
2019-05-03T00:31:09.127Z,71.40
2019-05-03T00:33:42.756Z,71.90
2019-05-03T00:36:27.488Z,72.90
2019-05-03T00:39:04.918Z,71.90
2019-05-03T00:41:35.680Z,72.40
2019-05-03T00:44:07.316Z,72.40
2019-05-03T00:46:38.995Z,72.00
2019-05-03T00:49:11.936Z,71.90
2019-05-03T00:51:42.919Z,72.10
2019-05-03T00:54:14.591Z,72.00
2019-05-03T00:56:46.506Z,72.30
2019-05-03T00:59:22.120Z,72.70
2019-05-03T01:01:53.929Z,72.90
2019-05-03T01:04:28.813Z,72.60
2019-05-03T01:06:59.410Z,72.40
2019-05-03T01:09:31.724Z,72.30
2019-05-03T01:12:02.384Z,72.60
2019-05-03T01:14:33.803Z,72.90
2019-05-03T01:17:06.681Z,73.10
2019-05-03T01:19:38.519Z,73.40
2019-05-03T01:22:09.447Z,73.60
2019-05-03T01:24:42.792Z,73.60
2019-05-03T01:27:14.964Z,73.60
2019-05-03T01:29:48.719Z,73.00
2019-05-03T01:32:22.255Z,72.90
2019-05-03T01:34:57.361Z,72.90
2019-05-03T01:37:28.835Z,73.30
2019-05-03T01:40:02.515Z,73.50
2019-05-03T01:42:33.723Z,73.20
2019-05-03T01:45:07.741Z,73.10
2019-05-03T01:48:01.939Z,73.00
2019-05-03T01:50:53.530Z,73.70
2019-05-03T01:53:25.526Z,72.90
2019-05-03T01:55:56.146Z,73.10
2019-05-03T01:58:27.026Z,73.10
2019-05-03T02:01:08.884Z,73.30
2019-05-03T02:03:53.010Z,73.40
2019-05-03T02:06:23.924Z,73.10
2019-05-03T02:08:55.365Z,72.30
2019-05-03T02:11:32.599Z,72.20
2019-05-03T02:14:04.101Z,72.20
2019-05-03T02:16:36.608Z,72.50
2019-05-03T02:19:07.196Z,72.50
2019-05-03T02:21:39.393Z,72.80
2019-05-03T02:24:11.809Z,72.70
2019-05-03T02:26:44.261Z,72.90
2019-05-03T02:29:16.182Z,73.30
2019-05-03T02:31:47.242Z,72.10
2019-05-03T02:34:19.306Z,72.10
2019-05-03T02:36:54.805Z,72.50
2019-05-03T02:39:25.137Z,72.60
2019-05-03T02:42:05.785Z,72.40
2019-05-03T02:44:29.582Z,71.60
2019-05-03T02:47:12.914Z,71.30
2019-05-03T02:49:47.958Z,71.40
2019-05-03T02:52:36.498Z,71.50
2019-05-03T02:55:09.418Z,71.30
2019-05-03T02:57:42.577Z,71.20
2019-05-03T03:00:16.339Z,71.10
2019-05-03T03:02:48.565Z,71.20
2019-05-03T03:05:21.998Z,72.60
2019-05-03T03:07:53.060Z,71.60
2019-05-03T03:10:26.304Z,71.30
2019-05-03T03:12:56.192Z,71.80
2019-05-03T03:15:29.793Z,72.00
2019-05-03T03:18:01.728Z,71.90
2019-05-03T03:20:35.564Z,72.40
2019-05-03T03:23:07.009Z,72.40
2019-05-03T03:25:46.269Z,72.10
2019-05-03T03:28:18.776Z,72.00
2019-05-03T03:31:28.997Z,72.50
2019-05-03T03:34:08.166Z,71.80
2019-05-03T03:36:59.600Z,72.40
2019-05-03T03:39:18.779Z,72.50
2019-05-03T03:41:50.862Z,72.60
2019-05-03T03:44:25.838Z,72.40
2019-05-03T03:46:58.044Z,72.00
2019-05-03T03:49:32.173Z,72.20
2019-05-03T03:52:06.145Z,72.30
2019-05-03T03:54:40.730Z,72.00
2019-05-03T03:57:16.190Z,72.20
2019-05-03T03:59:47.864Z,72.30
2019-05-03T04:02:18.623Z,72.60
2019-05-03T04:04:56.228Z,72.60
2019-05-03T04:07:26.842Z,72.30
2019-05-03T04:09:57.949Z,72.80
2019-05-03T04:12:30.930Z,72.70
2019-05-03T04:15:26.107Z,73.10
2019-05-03T04:18:05.483Z,73.10
2019-05-03T04:20:37.523Z,72.90
2019-05-03T04:23:16.283Z,73.10
2019-05-03T04:25:47.649Z,73.10
2019-05-03T04:28:19.374Z,73.10
2019-05-03T04:30:55.402Z,73.40
2019-05-03T04:33:27.465Z,73.50
2019-05-03T04:35:58.217Z,73.10
2019-05-03T04:38:30.307Z,72.90
2019-05-03T04:41:00.391Z,72.80
2019-05-03T04:43:31.443Z,72.60
2019-05-03T04:46:16.187Z,72.80
2019-05-03T04:48:45.214Z,72.90
2019-05-03T04:51:16.629Z,73.30
2019-05-03T04:53:52.405Z,73.50
2019-05-03T04:56:25.932Z,73.50
2019-05-03T04:58:56.327Z,73.50
2019-05-03T05:01:26.627Z,72.60
2019-05-03T05:03:56.959Z,72.70
2019-05-03T05:06:27.640Z,73.10
2019-05-03T05:08:59.635Z,73.10
2019-05-03T05:11:30.396Z,73.10
2019-05-03T05:14:01.150Z,73.50
2019-05-03T05:16:35.601Z,73.60
2019-05-03T05:19:08.767Z,73.80
2019-05-03T05:21:47.621Z,73.50
2019-05-03T05:24:18.127Z,73.90
2019-05-03T05:27:05.317Z,74.10
2019-05-03T05:29:37.568Z,74.20
2019-05-03T05:32:08.238Z,73.00
2019-05-03T05:34:38.432Z,73.10
2019-05-03T05:37:08.776Z,72.80
2019-05-03T05:39:39.054Z,73.20
2019-05-03T05:42:09.068Z,73.20
2019-05-03T05:44:40.376Z,73.50
2019-05-03T05:47:22.173Z,73.90
2019-05-03T05:50:07.936Z,73.90
2019-05-03T05:52:44.734Z,74.00
2019-05-03T05:55:29.428Z,74.80
2019-05-03T05:58:08.733Z,74.40
2019-05-03T06:00:55.155Z,75.00
2019-05-03T06:03:25.801Z,74.50
2019-05-03T06:05:58.474Z,74.60
2019-05-03T06:08:56.329Z,74.60
2019-05-03T06:11:44.916Z,74.70
2019-05-03T06:14:40.331Z,73.90
2019-05-03T06:17:24.426Z,74.30
2019-05-03T06:20:13.357Z,74.20
2019-05-03T06:22:47.838Z,74.30
2019-05-03T06:25:28.491Z,73.60
2019-05-03T06:28:14.713Z,73.40
2019-05-03T06:31:06.790Z,73.20
2019-05-03T06:33:38.388Z,73.40
2019-05-03T06:36:08.888Z,73.00
2019-05-03T06:38:42.336Z,73.30
2019-05-03T06:41:17.372Z,73.10
2019-05-03T06:43:48.846Z,73.20
2019-05-03T06:46:25.349Z,73.20
2019-05-03T06:48:54.332Z,73.90
2019-05-03T06:51:24.933Z,73.70
2019-05-03T06:53:54.999Z,73.20
2019-05-03T06:56:29.007Z,73.00
2019-05-03T06:58:58.248Z,73.00
2019-05-03T07:01:35.116Z,72.50
2019-05-03T07:04:10.869Z,72.60
2019-05-03T07:07:16.703Z,73.30
2019-05-03T07:09:56.059Z,73.20
2019-05-03T07:12:26.221Z,73.30
2019-05-03T07:19:10.562Z,73.60
2019-05-03T07:21:41.285Z,73.80
2019-05-03T07:24:11.763Z,73.20
2019-05-03T07:26:42.296Z,72.90
2019-05-03T07:29:15.213Z,73.50
2019-05-03T07:31:44.827Z,73.90
2019-05-03T07:34:15.746Z,73.40
2019-05-03T07:36:45.833Z,73.60
2019-05-03T07:39:16.409Z,72.80
2019-05-03T07:41:48.413Z,73.10
2019-05-03T07:44:18.164Z,73.70
2019-05-03T07:50:33.205Z,73.00
2019-05-03T07:59:16.103Z,71.60
2019-05-03T08:01:52.149Z,72.10
2019-05-03T08:04:22.693Z,70.90
2019-05-03T08:06:54.795Z,71.20
2019-05-03T08:09:28.210Z,71.10
2019-05-03T08:18:09.562Z,71.20
2019-05-03T08:20:40.610Z,71.40
2019-05-03T08:23:24.423Z,71.40
2019-05-03T08:25:44.751Z,70.80
2019-05-03T08:28:14.896Z,71.20
2019-05-03T08:31:04.876Z,71.40
2019-05-03T08:33:46.188Z,71.70
2019-05-03T08:42:56.119Z,71.00
2019-05-03T08:45:30.041Z,70.70
2019-05-03T08:51:25.021Z,71.40
2019-05-03T08:53:57.411Z,71.70
2019-05-03T08:56:27.884Z,71.30
2019-05-03T09:02:17.378Z,71.90
2019-05-03T09:04:46.269Z,72.30
2019-05-03T09:13:45.098Z,71.80
2019-05-03T09:16:16.285Z,71.30
2019-05-03T09:18:51.091Z,72.00
2019-05-03T09:21:22.485Z,72.30
2019-05-03T09:23:55.519Z,72.30
2019-05-03T09:29:41.057Z,71.60
2019-05-03T09:32:05.207Z,72.10
2019-05-03T09:40:54.453Z,71.10
2019-05-03T09:43:25.236Z,71.20
2019-05-03T09:58:00.286Z,72.00
2019-05-03T10:00:30.711Z,71.50
2019-05-03T10:03:05.638Z,71.80
2019-05-03T10:05:36.522Z,72.30
2019-05-03T10:11:35.009Z,72.70
2019-05-03T10:14:04.796Z,73.70
2019-05-03T10:20:20.724Z,74.20
2019-05-03T10:22:56.503Z,73.60
2019-05-03T10:25:29.073Z,73.30
2019-05-03T10:31:20.976Z,73.80
2019-05-03T10:33:58.100Z,73.60
2019-05-03T10:42:11.982Z,73.20
2019-05-03T10:50:25.122Z,73.00
2019-05-03T10:59:17.100Z,73.10
2019-05-03T11:02:07.803Z,73.50
2019-05-03T11:10:27.229Z,71.90
2019-05-03T11:13:00.834Z,71.80
2019-05-03T11:22:07.311Z,71.50
2019-05-03T11:32:09.449Z,72.70
2019-05-03T11:39:16.214Z,71.60
2019-05-03T11:41:51.616Z,73.20
2019-05-03T11:47:34.786Z,74.00
2019-05-03T11:50:06.392Z,73.90
2019-05-03T11:52:38.237Z,73.90
2019-05-03T12:01:08.644Z,72.40
2019-05-03T12:03:36.180Z,73.00
2019-05-03T12:06:16.078Z,73.40
2019-05-03T12:12:35.320Z,72.50
2019-05-03T12:21:37.659Z,72.10
2019-05-03T12:24:12.822Z,70.60
2019-05-03T12:30:15.297Z,70.50
2019-05-03T12:36:10.977Z,70.20
2019-05-03T12:42:36.818Z,70.80
2019-05-03T12:52:17.077Z,71.80
2019-05-03T12:54:56.939Z,72.80
2019-05-03T13:04:01.894Z,73.10
2019-05-03T13:10:09.762Z,71.70
2019-05-03T13:12:52.146Z,70.50
2019-05-03T13:20:56.134Z,69.40
2019-05-03T13:29:25.899Z,71.00
2019-05-03T13:37:52.755Z,72.20
2019-05-03T13:46:00.576Z,72.20
2019-05-03T13:51:39.215Z,72.20
2019-05-03T13:54:09.147Z,71.60
2019-05-03T14:08:45.427Z,72.20
2019-05-03T14:14:11.117Z,73.10
2019-05-03T14:16:42.102Z,73.00
2019-05-03T14:22:42.632Z,72.70
2019-05-03T14:25:15.935Z,72.50
2019-05-03T14:34:33.142Z,70.20
2019-05-03T14:37:05.260Z,70.60
2019-05-03T14:39:35.656Z,70.20
2019-05-03T14:42:15.214Z,70.10
2019-05-03T14:50:57.447Z,70.80
2019-05-03T15:00:09.940Z,65.60
2019-05-03T15:06:15.475Z,67.60
2019-05-03T15:15:25.032Z,68.60
2019-05-03T15:17:55.778Z,69.40
2019-05-03T15:20:27.816Z,70.50
2019-05-03T15:24:14.443Z,68.80
2019-05-03T15:26:46.300Z,67.70
2019-05-03T15:29:25.208Z,66.10
2019-05-03T15:35:49.949Z,67.30
2019-05-03T15:42:01.216Z,68.10
2019-05-03T15:48:01.934Z,63.00
2019-05-03T15:50:35.529Z,64.60
2019-05-03T15:53:29.909Z,63.50
2019-05-03T15:56:01.732Z,64.80
2019-05-03T15:58:35.843Z,64.60
2019-05-03T16:01:27.542Z,65.00
2019-05-03T16:04:20.864Z,62.80
2019-05-03T16:06:55.560Z,62.90
2019-05-03T16:09:29.051Z,63.10
2019-05-03T16:12:21.433Z,65.40
2019-05-03T16:15:13.159Z,65.80
2019-05-03T16:23:59.559Z,65.00
2019-05-03T16:29:46.441Z,64.90
2019-05-03T16:32:22.207Z,64.50
2019-05-03T16:34:57.259Z,64.30
2019-05-03T16:40:50.043Z,64.80
2019-05-03T16:46:58.197Z,62.70
2019-05-03T16:55:16.666Z,62.50
2019-05-03T17:01:13.573Z,64.10
2019-05-03T17:03:54.811Z,61.80
2019-05-03T17:10:15.418Z,60.10
2019-05-03T17:24:15.461Z,59.10
2019-05-03T17:26:57.389Z,59.20
2019-05-03T17:53:42.029Z,62.10
2019-05-03T18:00:13.624Z,63.10
2019-05-03T18:09:08.444Z,64.50
2019-05-03T18:11:42.498Z,64.30
2019-05-03T18:14:16.741Z,64.90
2019-05-03T18:22:45.594Z,64.90
2019-05-03T18:25:18.707Z,65.70
2019-05-03T18:34:08.907Z,67.50
2019-05-03T18:49:11.708Z,68.30
2019-05-03T18:57:51.030Z,69.70
2019-05-03T19:04:16.734Z,70.80
2019-05-03T19:07:01.996Z,71.00
2019-05-03T19:13:10.972Z,70.80
2019-05-03T19:15:44.614Z,71.20
2019-05-03T19:21:31.492Z,71.50
2019-05-03T19:24:04.802Z,71.50
2019-05-03T19:29:55.245Z,71.50
2019-05-03T19:32:35.644Z,72.10
2019-05-03T19:40:56.520Z,73.10
2019-05-03T19:49:26.636Z,73.90
2019-05-03T19:51:56.736Z,73.50
2019-05-03T20:00:41.396Z,72.80
2019-05-03T20:03:16.577Z,73.20
2019-05-03T20:06:07.178Z,72.60
2019-05-03T20:09:29.340Z,72.60
2019-05-03T20:12:00.145Z,72.60
2019-05-03T20:18:17.881Z,73.00
2019-05-03T20:20:49.325Z,72.90
2019-05-03T20:23:22.627Z,73.00
2019-05-03T20:25:54.613Z,73.10
2019-05-03T20:31:27.964Z,73.40
2019-05-03T20:34:05.224Z,73.50
2019-05-03T20:36:36.803Z,73.80
2019-05-03T20:43:07.434Z,74.00
2019-05-03T20:50:04.715Z,69.10
2019-05-03T20:56:24.512Z,69.20
2019-05-03T20:59:05.751Z,69.90
2019-05-03T21:04:38.908Z,70.00
2019-05-03T21:19:48.994Z,72.30
2019-05-03T21:22:24.807Z,72.00
2019-05-03T21:28:04.625Z,72.50
2019-05-03T21:36:39.802Z,73.30
2019-05-03T21:39:10.014Z,73.70
2019-05-03T21:44:33.184Z,73.80
2019-05-03T21:53:25.107Z,73.50
2019-05-03T21:55:56.085Z,73.50
2019-05-03T22:01:38.325Z,73.70
2019-05-03T22:04:12.440Z,73.60
2019-05-03T22:06:44.416Z,73.80
2019-05-03T22:09:15.870Z,73.60
2019-05-03T22:11:46.194Z,73.70
2019-05-03T22:14:24.381Z,73.50
2019-05-03T22:23:39.971Z,73.10
2019-05-03T22:26:10.714Z,73.60
2019-05-03T22:28:41.399Z,73.40
2019-05-03T22:31:11.772Z,73.70
2019-05-03T22:33:46.097Z,73.50
2019-05-03T22:41:56.162Z,73.30
2019-05-03T22:44:29.956Z,73.40
2019-05-03T22:47:01.299Z,73.70
2019-05-03T22:49:31.471Z,73.70
2019-05-03T22:57:55.123Z,74.10
2019-05-03T23:00:28.321Z,74.20
2019-05-03T23:02:58.539Z,74.40
2019-05-03T23:05:29.507Z,74.40
2019-05-03T23:07:59.708Z,74.60
2019-05-03T23:16:07.678Z,74.80
2019-05-03T23:18:37.810Z,74.80
2019-05-03T23:21:15.209Z,75.00
2019-05-03T23:26:54.514Z,75.30
2019-05-03T23:29:24.914Z,75.40
2019-05-03T23:31:54.798Z,75.40
2019-05-03T23:34:25.445Z,75.60
2019-05-03T23:36:55.688Z,75.70
2019-05-03T23:39:26.241Z,75.70
2019-05-03T23:41:56.306Z,75.70
2019-05-03T23:44:27.091Z,75.90
2019-05-03T23:47:28.267Z,76.00
2019-05-03T23:49:58.143Z,75.70
2019-05-03T23:52:35.277Z,75.80
2019-05-03T23:55:11.054Z,75.80
2019-05-03T23:57:41.975Z,75.90
